sensor_id;sensor_type;location;lat;lon;timestamp;temperature;humidity
10722;DHT22;5412;59.450;18.124;2023-11-19T00:00:42;-0.50;99.90
10722;DHT22;5412;59.450;18.124;2023-11-19T00:03:08;-0.50;99.90
10722;DHT22;5412;59.450;18.124;2023-11-19T00:05:34;-0.50;99.90
10722;DHT22;5412;59.450;18.124;2023-11-19T00:07:59;-0.50;99.90
10722;DHT22;5412;59.450;18.124;2023-11-19T00:10:25;-0.50;99.90
10722;DHT22;5412;59.450;18.124;2023-11-19T00:12:51;-0.50;99.90
10722;DHT22;5412;59.450;18.124;2023-11-19T00:15:17;-0.50;99.90
10722;DHT22;5412;59.450;18.124;2023-11-19T00:17:47;-0.50;99.90
10722;DHT22;5412;59.450;18.124;2023-11-19T00:20:15;-0.50;99.90
10722;DHT22;5412;59.450;18.124;2023-11-19T00:22:41;-0.40;99.90
10722;DHT22;5412;59.450;18.124;2023-11-19T00:25:08;-0.40;99.90
10722;DHT22;5412;59.450;18.124;2023-11-19T00:27:37;-0.40;99.90
10722;DHT22;5412;59.450;18.124;2023-11-19T00:30:07;-0.40;99.90
10722;DHT22;5412;59.450;18.124;2023-11-19T00:32:35;-0.30;99.90
10722;DHT22;5412;59.450;18.124;2023-11-19T00:35:04;-0.30;99.90
10722;DHT22;5412;59.450;18.124;2023-11-19T00:37:30;-0.30;99.90
10722;DHT22;5412;59.450;18.124;2023-11-19T00:39:55;-0.40;99.90
10722;DHT22;5412;59.450;18.124;2023-11-19T00:42:24;-0.40;99.90
10722;DHT22;5412;59.450;18.124;2023-11-19T00:44:50;-0.50;99.90
10722;DHT22;5412;59.450;18.124;2023-11-19T00:47:17;-0.60;99.90
10722;DHT22;5412;59.450;18.124;2023-11-19T00:49:46;-0.60;99.90
10722;DHT22;5412;59.450;18.124;2023-11-19T00:52:14;-0.60;99.90
10722;DHT22;5412;59.450;18.124;2023-11-19T00:54:40;-0.60;99.90
10722;DHT22;5412;59.450;18.124;2023-11-19T00:57:05;-0.70;99.90
10722;DHT22;5412;59.450;18.124;2023-11-19T00:59:31;-0.70;99.90
10722;DHT22;5412;59.450;18.124;2023-11-19T01:01:58;-0.70;99.90
10722;DHT22;5412;59.450;18.124;2023-11-19T01:04:24;-0.80;99.90
10722;DHT22;5412;59.450;18.124;2023-11-19T01:06:50;-0.70;99.90
10722;DHT22;5412;59.450;18.124;2023-11-19T01:09:15;-0.60;99.90
10722;DHT22;5412;59.450;18.124;2023-11-19T01:11:42;-0.60;99.90
10722;DHT22;5412;59.450;18.124;2023-11-19T01:14:07;-0.70;99.90
10722;DHT22;5412;59.450;18.124;2023-11-19T01:16:33;-0.70;99.90
10722;DHT22;5412;59.450;18.124;2023-11-19T01:18:59;-0.60;99.90
10722;DHT22;5412;59.450;18.124;2023-11-19T01:21:29;-0.60;99.90
10722;DHT22;5412;59.450;18.124;2023-11-19T01:23:55;-0.70;99.90
10722;DHT22;5412;59.450;18.124;2023-11-19T01:26:21;-0.70;99.90
10722;DHT22;5412;59.450;18.124;2023-11-19T01:28:47;-0.60;99.90
10722;DHT22;5412;59.450;18.124;2023-11-19T01:31:16;-0.50;99.90
10722;DHT22;5412;59.450;18.124;2023-11-19T01:33:42;-0.80;99.90
10722;DHT22;5412;59.450;18.124;2023-11-19T01:36:08;-1.00;99.90
10722;DHT22;5412;59.450;18.124;2023-11-19T01:38:35;-0.90;99.90
10722;DHT22;5412;59.450;18.124;2023-11-19T01:41:01;-0.80;99.90
10722;DHT22;5412;59.450;18.124;2023-11-19T01:43:33;-0.80;99.90
10722;DHT22;5412;59.450;18.124;2023-11-19T01:46:00;-0.70;99.90
10722;DHT22;5412;59.450;18.124;2023-11-19T01:48:26;-0.80;99.90
10722;DHT22;5412;59.450;18.124;2023-11-19T01:50:52;-0.70;99.90
10722;DHT22;5412;59.450;18.124;2023-11-19T01:53:18;-0.60;99.90
10722;DHT22;5412;59.450;18.124;2023-11-19T01:55:46;-0.60;99.90
10722;DHT22;5412;59.450;18.124;2023-11-19T01:58:13;-0.80;99.90
10722;DHT22;5412;59.450;18.124;2023-11-19T02:00:39;-0.70;99.90
10722;DHT22;5412;59.450;18.124;2023-11-19T02:03:06;-0.60;99.90
10722;DHT22;5412;59.450;18.124;2023-11-19T02:05:34;-0.50;99.90
10722;DHT22;5412;59.450;18.124;2023-11-19T02:08:00;-0.60;99.90
10722;DHT22;5412;59.450;18.124;2023-11-19T02:10:26;-0.50;99.90
10722;DHT22;5412;59.450;18.124;2023-11-19T02:12:52;-0.50;99.90
10722;DHT22;5412;59.450;18.124;2023-11-19T02:15:18;-0.60;99.90
10722;DHT22;5412;59.450;18.124;2023-11-19T02:17:50;-0.70;99.90
10722;DHT22;5412;59.450;18.124;2023-11-19T02:20:17;-0.80;99.90
10722;DHT22;5412;59.450;18.124;2023-11-19T02:22:46;-0.80;99.90
10722;DHT22;5412;59.450;18.124;2023-11-19T02:25:23;-0.80;99.90
10722;DHT22;5412;59.450;18.124;2023-11-19T02:27:56;-0.90;99.90
10722;DHT22;5412;59.450;18.124;2023-11-19T02:30:24;-0.70;99.90
10722;DHT22;5412;59.450;18.124;2023-11-19T02:32:53;-0.60;99.90
10722;DHT22;5412;59.450;18.124;2023-11-19T02:35:19;-0.60;99.90
10722;DHT22;5412;59.450;18.124;2023-11-19T02:37:47;-0.50;99.90
10722;DHT22;5412;59.450;18.124;2023-11-19T02:40:13;-0.60;99.90
10722;DHT22;5412;59.450;18.124;2023-11-19T02:42:39;-0.60;99.90
10722;DHT22;5412;59.450;18.124;2023-11-19T02:45:05;-0.80;99.90
10722;DHT22;5412;59.450;18.124;2023-11-19T02:47:32;-0.80;99.90
10722;DHT22;5412;59.450;18.124;2023-11-19T02:49:59;-0.90;99.90
10722;DHT22;5412;59.450;18.124;2023-11-19T02:52:25;-0.90;99.90
10722;DHT22;5412;59.450;18.124;2023-11-19T02:54:51;-0.90;99.90
10722;DHT22;5412;59.450;18.124;2023-11-19T02:57:17;-0.80;99.90
10722;DHT22;5412;59.450;18.124;2023-11-19T02:59:45;-0.80;99.90
10722;DHT22;5412;59.450;18.124;2023-11-19T03:02:11;-0.90;99.90
10722;DHT22;5412;59.450;18.124;2023-11-19T03:04:38;-0.90;99.90
10722;DHT22;5412;59.450;18.124;2023-11-19T03:07:05;-0.70;99.90
10722;DHT22;5412;59.450;18.124;2023-11-19T03:09:32;-0.60;99.90
10722;DHT22;5412;59.450;18.124;2023-11-19T03:11:59;-0.70;99.90
10722;DHT22;5412;59.450;18.124;2023-11-19T03:14:25;-0.70;99.90
10722;DHT22;5412;59.450;18.124;2023-11-19T03:16:51;-0.90;99.90
10722;DHT22;5412;59.450;18.124;2023-11-19T03:19:17;-0.80;99.90
10722;DHT22;5412;59.450;18.124;2023-11-19T03:21:42;-0.80;99.90
10722;DHT22;5412;59.450;18.124;2023-11-19T03:24:08;-0.70;99.90
10722;DHT22;5412;59.450;18.124;2023-11-19T03:26:34;-0.70;99.90
10722;DHT22;5412;59.450;18.124;2023-11-19T03:29:00;-0.80;99.90
10722;DHT22;5412;59.450;18.124;2023-11-19T03:31:26;-1.20;99.90
10722;DHT22;5412;59.450;18.124;2023-11-19T03:33:52;-1.40;99.90
10722;DHT22;5412;59.450;18.124;2023-11-19T03:36:18;-1.30;99.90
10722;DHT22;5412;59.450;18.124;2023-11-19T03:38:44;-1.00;99.90
10722;DHT22;5412;59.450;18.124;2023-11-19T03:41:13;-1.00;99.90
10722;DHT22;5412;59.450;18.124;2023-11-19T03:43:39;-1.10;99.90
10722;DHT22;5412;59.450;18.124;2023-11-19T03:46:18;-1.10;99.90
10722;DHT22;5412;59.450;18.124;2023-11-19T03:48:45;-1.00;99.90
10722;DHT22;5412;59.450;18.124;2023-11-19T03:51:11;-0.80;99.90
10722;DHT22;5412;59.450;18.124;2023-11-19T03:53:44;-0.80;99.90
10722;DHT22;5412;59.450;18.124;2023-11-19T03:56:10;-1.00;99.90
10722;DHT22;5412;59.450;18.124;2023-11-19T03:58:39;-1.00;99.90
10722;DHT22;5412;59.450;18.124;2023-11-19T04:01:05;-1.00;99.90
10722;DHT22;5412;59.450;18.124;2023-11-19T04:03:31;-0.90;99.90
10722;DHT22;5412;59.450;18.124;2023-11-19T04:05:57;-0.80;99.90
10722;DHT22;5412;59.450;18.124;2023-11-19T04:08:23;-0.70;99.90
10722;DHT22;5412;59.450;18.124;2023-11-19T04:10:48;-0.60;99.90
10722;DHT22;5412;59.450;18.124;2023-11-19T04:13:14;-0.50;99.90
10722;DHT22;5412;59.450;18.124;2023-11-19T04:15:40;-0.50;99.90
10722;DHT22;5412;59.450;18.124;2023-11-19T04:18:06;-0.50;99.90
10722;DHT22;5412;59.450;18.124;2023-11-19T04:20:31;-0.50;99.90
10722;DHT22;5412;59.450;18.124;2023-11-19T04:22:57;-0.40;99.90
10722;DHT22;5412;59.450;18.124;2023-11-19T04:25:23;-0.10;99.90
10722;DHT22;5412;59.450;18.124;2023-11-19T04:27:51;-0.50;99.90
10722;DHT22;5412;59.450;18.124;2023-11-19T04:30:17;-0.50;99.90
10722;DHT22;5412;59.450;18.124;2023-11-19T04:32:44;-0.40;99.90
10722;DHT22;5412;59.450;18.124;2023-11-19T04:35:09;-0.30;99.90
10722;DHT22;5412;59.450;18.124;2023-11-19T04:37:36;-0.50;99.90
10722;DHT22;5412;59.450;18.124;2023-11-19T04:40:02;-0.50;99.90
10722;DHT22;5412;59.450;18.124;2023-11-19T04:42:28;-0.50;99.90
10722;DHT22;5412;59.450;18.124;2023-11-19T04:44:55;-0.50;99.90
10722;DHT22;5412;59.450;18.124;2023-11-19T04:47:20;-0.50;99.90
10722;DHT22;5412;59.450;18.124;2023-11-19T04:49:46;-0.50;99.90
10722;DHT22;5412;59.450;18.124;2023-11-19T04:52:12;-0.50;99.90
10722;DHT22;5412;59.450;18.124;2023-11-19T04:54:41;-0.50;99.90
10722;DHT22;5412;59.450;18.124;2023-11-19T04:57:08;-0.40;99.90
10722;DHT22;5412;59.450;18.124;2023-11-19T04:59:38;-0.40;99.90
10722;DHT22;5412;59.450;18.124;2023-11-19T05:02:04;-0.40;99.90
10722;DHT22;5412;59.450;18.124;2023-11-19T05:04:30;-0.40;99.90
10722;DHT22;5412;59.450;18.124;2023-11-19T05:06:56;-0.30;99.90
10722;DHT22;5412;59.450;18.124;2023-11-19T05:09:22;-0.40;99.90
10722;DHT22;5412;59.450;18.124;2023-11-19T05:11:48;-0.30;99.90
10722;DHT22;5412;59.450;18.124;2023-11-19T05:14:14;-0.30;99.90
10722;DHT22;5412;59.450;18.124;2023-11-19T05:16:40;-0.30;99.90
10722;DHT22;5412;59.450;18.124;2023-11-19T05:19:06;-0.30;99.90
10722;DHT22;5412;59.450;18.124;2023-11-19T05:21:32;-0.30;99.90
10722;DHT22;5412;59.450;18.124;2023-11-19T05:23:58;-0.20;99.90
10722;DHT22;5412;59.450;18.124;2023-11-19T05:26:24;-0.20;99.90
10722;DHT22;5412;59.450;18.124;2023-11-19T05:28:50;-0.10;99.90
10722;DHT22;5412;59.450;18.124;2023-11-19T05:31:16;-0.20;99.90
10722;DHT22;5412;59.450;18.124;2023-11-19T05:33:42;-0.10;99.90
10722;DHT22;5412;59.450;18.124;2023-11-19T05:36:08;-0.20;99.90
10722;DHT22;5412;59.450;18.124;2023-11-19T05:38:36;-0.20;99.90
10722;DHT22;5412;59.450;18.124;2023-11-19T05:41:02;-0.20;99.90
10722;DHT22;5412;59.450;18.124;2023-11-19T05:43:28;-0.20;99.90
10722;DHT22;5412;59.450;18.124;2023-11-19T05:45:54;-0.30;99.90
10722;DHT22;5412;59.450;18.124;2023-11-19T05:48:20;-0.30;99.90
10722;DHT22;5412;59.450;18.124;2023-11-19T05:50:45;-0.20;99.90
10722;DHT22;5412;59.450;18.124;2023-11-19T05:53:11;-0.10;99.90
10722;DHT22;5412;59.450;18.124;2023-11-19T05:55:40;-0.10;99.90
10722;DHT22;5412;59.450;18.124;2023-11-19T05:58:12;-0.10;99.90
10722;DHT22;5412;59.450;18.124;2023-11-19T06:00:38;-0.20;99.90
10722;DHT22;5412;59.450;18.124;2023-11-19T06:03:07;-0.20;99.90
10722;DHT22;5412;59.450;18.124;2023-11-19T06:05:33;-0.20;99.90
10722;DHT22;5412;59.450;18.124;2023-11-19T06:07:58;-0.20;99.90
10722;DHT22;5412;59.450;18.124;2023-11-19T06:10:24;-0.30;99.90
10722;DHT22;5412;59.450;18.124;2023-11-19T06:12:57;-0.30;99.90
10722;DHT22;5412;59.450;18.124;2023-11-19T06:15:27;-0.30;99.90
10722;DHT22;5412;59.450;18.124;2023-11-19T06:17:53;-0.30;99.90
10722;DHT22;5412;59.450;18.124;2023-11-19T06:20:20;-0.30;99.90
10722;DHT22;5412;59.450;18.124;2023-11-19T06:22:46;-0.30;99.90
10722;DHT22;5412;59.450;18.124;2023-11-19T06:25:12;-0.30;99.90
10722;DHT22;5412;59.450;18.124;2023-11-19T06:27:42;-0.30;99.90
10722;DHT22;5412;59.450;18.124;2023-11-19T06:30:08;-0.30;99.90
10722;DHT22;5412;59.450;18.124;2023-11-19T06:32:34;-0.20;99.90
10722;DHT22;5412;59.450;18.124;2023-11-19T06:35:00;-0.30;99.90
10722;DHT22;5412;59.450;18.124;2023-11-19T06:37:25;-0.20;99.90
10722;DHT22;5412;59.450;18.124;2023-11-19T06:39:52;-0.20;99.90
10722;DHT22;5412;59.450;18.124;2023-11-19T06:42:18;-0.10;99.90
10722;DHT22;5412;59.450;18.124;2023-11-19T06:44:44;-0.20;99.90
10722;DHT22;5412;59.450;18.124;2023-11-19T06:47:09;-0.20;99.90
10722;DHT22;5412;59.450;18.124;2023-11-19T06:49:35;-0.30;99.90
10722;DHT22;5412;59.450;18.124;2023-11-19T06:52:01;-0.30;99.90
10722;DHT22;5412;59.450;18.124;2023-11-19T06:54:27;-0.30;99.90
10722;DHT22;5412;59.450;18.124;2023-11-19T06:56:52;-0.30;99.90
10722;DHT22;5412;59.450;18.124;2023-11-19T06:59:18;-0.10;99.90
10722;DHT22;5412;59.450;18.124;2023-11-19T07:01:44;0.10;99.90
10722;DHT22;5412;59.450;18.124;2023-11-19T07:04:13;0.00;99.90
10722;DHT22;5412;59.450;18.124;2023-11-19T07:06:39;0.00;99.90
10722;DHT22;5412;59.450;18.124;2023-11-19T07:09:07;-0.10;99.90
10722;DHT22;5412;59.450;18.124;2023-11-19T07:11:39;-0.30;99.90
10722;DHT22;5412;59.450;18.124;2023-11-19T07:14:06;-0.30;99.90
10722;DHT22;5412;59.450;18.124;2023-11-19T07:16:33;-0.30;99.90
10722;DHT22;5412;59.450;18.124;2023-11-19T07:19:05;-0.30;99.90
10722;DHT22;5412;59.450;18.124;2023-11-19T07:21:31;-0.30;99.90
10722;DHT22;5412;59.450;18.124;2023-11-19T07:23:58;-0.30;99.90
10722;DHT22;5412;59.450;18.124;2023-11-19T07:26:24;-0.30;99.90
10722;DHT22;5412;59.450;18.124;2023-11-19T07:28:50;-0.30;99.90
10722;DHT22;5412;59.450;18.124;2023-11-19T07:31:16;-0.30;99.90
10722;DHT22;5412;59.450;18.124;2023-11-19T07:33:45;-0.30;99.90
10722;DHT22;5412;59.450;18.124;2023-11-19T07:36:12;-0.20;99.90
10722;DHT22;5412;59.450;18.124;2023-11-19T07:38:38;-0.10;99.90
10722;DHT22;5412;59.450;18.124;2023-11-19T07:41:07;-0.20;99.90
10722;DHT22;5412;59.450;18.124;2023-11-19T07:43:35;-0.10;99.90
10722;DHT22;5412;59.450;18.124;2023-11-19T07:46:01;-0.10;99.90
10722;DHT22;5412;59.450;18.124;2023-11-19T07:48:27;-0.20;99.90
10722;DHT22;5412;59.450;18.124;2023-11-19T07:50:53;-0.30;99.90
10722;DHT22;5412;59.450;18.124;2023-11-19T07:53:19;-0.20;99.90
10722;DHT22;5412;59.450;18.124;2023-11-19T07:55:45;-0.10;99.90
10722;DHT22;5412;59.450;18.124;2023-11-19T07:58:12;-0.10;99.90
10722;DHT22;5412;59.450;18.124;2023-11-19T08:00:38;-0.10;99.90
10722;DHT22;5412;59.450;18.124;2023-11-19T08:03:04;0.10;99.90
10722;DHT22;5412;59.450;18.124;2023-11-19T08:05:31;0.10;99.90
10722;DHT22;5412;59.450;18.124;2023-11-19T08:07:57;0.20;99.90
10722;DHT22;5412;59.450;18.124;2023-11-19T08:10:23;0.20;99.90
10722;DHT22;5412;59.450;18.124;2023-11-19T08:12:49;0.30;99.90
10722;DHT22;5412;59.450;18.124;2023-11-19T08:15:15;0.30;99.90
10722;DHT22;5412;59.450;18.124;2023-11-19T08:17:41;0.30;99.90
10722;DHT22;5412;59.450;18.124;2023-11-19T08:20:09;0.10;99.90
10722;DHT22;5412;59.450;18.124;2023-11-19T08:22:36;0.20;99.90
10722;DHT22;5412;59.450;18.124;2023-11-19T08:25:04;0.30;99.90
10722;DHT22;5412;59.450;18.124;2023-11-19T08:27:30;0.30;99.90
10722;DHT22;5412;59.450;18.124;2023-11-19T08:29:56;0.20;99.90
10722;DHT22;5412;59.450;18.124;2023-11-19T08:32:26;0.20;99.90
10722;DHT22;5412;59.450;18.124;2023-11-19T08:34:52;0.30;99.90
10722;DHT22;5412;59.450;18.124;2023-11-19T08:37:17;0.40;99.90
10722;DHT22;5412;59.450;18.124;2023-11-19T08:39:49;0.50;99.90
10722;DHT22;5412;59.450;18.124;2023-11-19T08:42:15;0.50;99.90
10722;DHT22;5412;59.450;18.124;2023-11-19T08:44:41;0.50;99.90
10722;DHT22;5412;59.450;18.124;2023-11-19T08:47:10;0.50;99.90
10722;DHT22;5412;59.450;18.124;2023-11-19T08:49:36;0.60;99.90
10722;DHT22;5412;59.450;18.124;2023-11-19T08:52:02;0.70;99.90
10722;DHT22;5412;59.450;18.124;2023-11-19T08:54:28;0.80;99.90
10722;DHT22;5412;59.450;18.124;2023-11-19T08:56:53;0.70;99.90
10722;DHT22;5412;59.450;18.124;2023-11-19T08:59:19;0.60;99.90
10722;DHT22;5412;59.450;18.124;2023-11-19T09:01:45;0.70;99.90
10722;DHT22;5412;59.450;18.124;2023-11-19T09:04:11;0.90;99.90
10722;DHT22;5412;59.450;18.124;2023-11-19T09:06:36;1.00;99.90
10722;DHT22;5412;59.450;18.124;2023-11-19T09:09:02;0.90;99.90
10722;DHT22;5412;59.450;18.124;2023-11-19T09:11:31;0.90;99.90
10722;DHT22;5412;59.450;18.124;2023-11-19T09:13:57;0.90;99.90
10722;DHT22;5412;59.450;18.124;2023-11-19T09:16:23;0.90;99.90
10722;DHT22;5412;59.450;18.124;2023-11-19T09:18:48;0.90;99.90
10722;DHT22;5412;59.450;18.124;2023-11-19T09:21:14;0.90;99.90
10722;DHT22;5412;59.450;18.124;2023-11-19T09:23:40;0.90;99.90
10722;DHT22;5412;59.450;18.124;2023-11-19T09:26:06;1.00;99.90
10722;DHT22;5412;59.450;18.124;2023-11-19T09:28:33;1.10;99.90
10722;DHT22;5412;59.450;18.124;2023-11-19T09:30:59;1.10;99.90
10722;DHT22;5412;59.450;18.124;2023-11-19T09:33:24;0.80;99.90
10722;DHT22;5412;59.450;18.124;2023-11-19T09:35:51;0.70;99.90
10722;DHT22;5412;59.450;18.124;2023-11-19T09:38:17;0.80;99.90
10722;DHT22;5412;59.450;18.124;2023-11-19T09:40:43;0.90;99.90
10722;DHT22;5412;59.450;18.124;2023-11-19T09:43:09;0.90;99.90
10722;DHT22;5412;59.450;18.124;2023-11-19T09:45:48;0.60;99.90
10722;DHT22;5412;59.450;18.124;2023-11-19T09:48:17;0.50;99.90
10722;DHT22;5412;59.450;18.124;2023-11-19T09:50:48;0.70;99.90
10722;DHT22;5412;59.450;18.124;2023-11-19T09:53:14;0.90;99.90
10722;DHT22;5412;59.450;18.124;2023-11-19T09:55:41;1.00;99.90
10722;DHT22;5412;59.450;18.124;2023-11-19T09:58:07;1.10;99.90
10722;DHT22;5412;59.450;18.124;2023-11-19T10:00:34;1.00;99.90
10722;DHT22;5412;59.450;18.124;2023-11-19T10:03:00;1.10;99.90
10722;DHT22;5412;59.450;18.124;2023-11-19T10:05:26;1.10;99.90
10722;DHT22;5412;59.450;18.124;2023-11-19T10:07:52;1.10;99.90
10722;DHT22;5412;59.450;18.124;2023-11-19T10:10:20;1.10;99.90
10722;DHT22;5412;59.450;18.124;2023-11-19T10:12:46;1.20;99.90
10722;DHT22;5412;59.450;18.124;2023-11-19T10:15:23;1.20;99.90
10722;DHT22;5412;59.450;18.124;2023-11-19T10:17:50;1.30;99.90
10722;DHT22;5412;59.450;18.124;2023-11-19T10:20:17;1.30;99.90
10722;DHT22;5412;59.450;18.124;2023-11-19T10:22:42;1.30;99.90
10722;DHT22;5412;59.450;18.124;2023-11-19T10:25:24;1.30;99.90
10722;DHT22;5412;59.450;18.124;2023-11-19T10:27:54;1.30;99.90
10722;DHT22;5412;59.450;18.124;2023-11-19T10:30:27;1.30;99.90
10722;DHT22;5412;59.450;18.124;2023-11-19T10:33:08;1.30;99.90
10722;DHT22;5412;59.450;18.124;2023-11-19T10:35:35;0.90;99.90
10722;DHT22;5412;59.450;18.124;2023-11-19T10:38:14;1.00;99.90
10722;DHT22;5412;59.450;18.124;2023-11-19T10:40:41;0.80;99.90
10722;DHT22;5412;59.450;18.124;2023-11-19T10:43:07;0.70;99.90
10722;DHT22;5412;59.450;18.124;2023-11-19T10:45:34;0.70;99.90
10722;DHT22;5412;59.450;18.124;2023-11-19T10:48:00;0.70;99.90
10722;DHT22;5412;59.450;18.124;2023-11-19T10:50:27;0.70;99.90
10722;DHT22;5412;59.450;18.124;2023-11-19T10:52:57;0.70;99.90
10722;DHT22;5412;59.450;18.124;2023-11-19T10:55:32;0.60;99.90
10722;DHT22;5412;59.450;18.124;2023-11-19T10:58:06;0.40;99.90
10722;DHT22;5412;59.450;18.124;2023-11-19T11:00:58;0.50;99.90
10722;DHT22;5412;59.450;18.124;2023-11-19T11:03:30;0.40;99.90
10722;DHT22;5412;59.450;18.124;2023-11-19T11:06:03;0.60;99.90
10722;DHT22;5412;59.450;18.124;2023-11-19T11:08:30;0.60;99.90
10722;DHT22;5412;59.450;18.124;2023-11-19T11:10:57;0.70;99.90
10722;DHT22;5412;59.450;18.124;2023-11-19T11:13:25;0.80;99.90
10722;DHT22;5412;59.450;18.124;2023-11-19T11:15:53;0.90;99.90
10722;DHT22;5412;59.450;18.124;2023-11-19T11:18:21;0.90;99.90
10722;DHT22;5412;59.450;18.124;2023-11-19T11:20:49;0.90;99.90
10722;DHT22;5412;59.450;18.124;2023-11-19T11:23:37;1.00;99.90
10722;DHT22;5412;59.450;18.124;2023-11-19T11:29:31;0.90;99.90
10722;DHT22;5412;59.450;18.124;2023-11-19T11:35:07;0.90;99.90
10722;DHT22;5412;59.450;18.124;2023-11-19T11:37:49;0.60;99.90
10722;DHT22;5412;59.450;18.124;2023-11-19T11:40:16;0.70;99.90
10722;DHT22;5412;59.450;18.124;2023-11-19T11:42:43;0.80;99.90
10722;DHT22;5412;59.450;18.124;2023-11-19T11:45:14;0.50;99.90
10722;DHT22;5412;59.450;18.124;2023-11-19T11:50:12;0.40;99.90
10722;DHT22;5412;59.450;18.124;2023-11-19T11:57:50;0.50;99.90
10722;DHT22;5412;59.450;18.124;2023-11-19T12:03:01;0.50;99.90
10722;DHT22;5412;59.450;18.124;2023-11-19T12:05:27;0.30;99.90
10722;DHT22;5412;59.450;18.124;2023-11-19T12:07:57;0.30;99.90
10722;DHT22;5412;59.450;18.124;2023-11-19T12:10:25;0.40;99.90
10722;DHT22;5412;59.450;18.124;2023-11-19T12:12:58;0.40;99.90
10722;DHT22;5412;59.450;18.124;2023-11-19T12:15:24;0.40;99.90
10722;DHT22;5412;59.450;18.124;2023-11-19T12:17:52;0.40;99.90
10722;DHT22;5412;59.450;18.124;2023-11-19T12:20:20;0.60;99.90
10722;DHT22;5412;59.450;18.124;2023-11-19T12:22:47;0.60;99.90
10722;DHT22;5412;59.450;18.124;2023-11-19T12:25:15;0.60;99.90
10722;DHT22;5412;59.450;18.124;2023-11-19T12:27:47;0.70;99.90
10722;DHT22;5412;59.450;18.124;2023-11-19T12:30:17;0.80;99.90
10722;DHT22;5412;59.450;18.124;2023-11-19T12:32:46;0.70;99.90
10722;DHT22;5412;59.450;18.124;2023-11-19T12:35:12;0.70;99.90
10722;DHT22;5412;59.450;18.124;2023-11-19T12:37:48;0.70;99.90
10722;DHT22;5412;59.450;18.124;2023-11-19T12:40:16;0.50;99.90
10722;DHT22;5412;59.450;18.124;2023-11-19T12:42:50;0.60;99.90
10722;DHT22;5412;59.450;18.124;2023-11-19T12:45:16;0.60;99.90
10722;DHT22;5412;59.450;18.124;2023-11-19T12:47:43;0.70;99.90
10722;DHT22;5412;59.450;18.124;2023-11-19T12:50:10;0.60;99.90
10722;DHT22;5412;59.450;18.124;2023-11-19T12:52:36;0.60;99.90
10722;DHT22;5412;59.450;18.124;2023-11-19T12:55:27;0.60;99.90
10722;DHT22;5412;59.450;18.124;2023-11-19T12:57:52;0.60;99.90
10722;DHT22;5412;59.450;18.124;2023-11-19T13:00:22;0.50;99.90
10722;DHT22;5412;59.450;18.124;2023-11-19T13:02:57;0.30;99.90
10722;DHT22;5412;59.450;18.124;2023-11-19T13:05:42;0.30;99.90
10722;DHT22;5412;59.450;18.124;2023-11-19T13:08:09;0.30;99.90
10722;DHT22;5412;59.450;18.124;2023-11-19T13:10:51;0.20;99.90
10722;DHT22;5412;59.450;18.124;2023-11-19T13:13:17;0.20;99.90
10722;DHT22;5412;59.450;18.124;2023-11-19T13:15:43;0.20;99.90
10722;DHT22;5412;59.450;18.124;2023-11-19T13:18:11;0.30;99.90
10722;DHT22;5412;59.450;18.124;2023-11-19T13:20:37;0.20;99.90
10722;DHT22;5412;59.450;18.124;2023-11-19T13:23:05;0.10;99.90
10722;DHT22;5412;59.450;18.124;2023-11-19T13:25:31;0.20;99.90
10722;DHT22;5412;59.450;18.124;2023-11-19T13:27:58;0.20;99.90
10722;DHT22;5412;59.450;18.124;2023-11-19T13:30:25;0.20;99.90
10722;DHT22;5412;59.450;18.124;2023-11-19T13:32:51;0.00;99.90
10722;DHT22;5412;59.450;18.124;2023-11-19T13:35:18;0.10;99.90
10722;DHT22;5412;59.450;18.124;2023-11-19T13:37:45;0.10;99.90
10722;DHT22;5412;59.450;18.124;2023-11-19T13:40:11;0.10;99.90
10722;DHT22;5412;59.450;18.124;2023-11-19T13:42:42;0.10;99.90
10722;DHT22;5412;59.450;18.124;2023-11-19T13:45:12;0.20;99.90
10722;DHT22;5412;59.450;18.124;2023-11-19T13:47:45;0.20;99.90
10722;DHT22;5412;59.450;18.124;2023-11-19T13:50:16;0.10;99.90
10722;DHT22;5412;59.450;18.124;2023-11-19T13:52:45;0.20;99.90
10722;DHT22;5412;59.450;18.124;2023-11-19T13:55:13;0.30;99.90
10722;DHT22;5412;59.450;18.124;2023-11-19T13:57:40;0.10;99.90
10722;DHT22;5412;59.450;18.124;2023-11-19T14:00:11;0.10;99.90
10722;DHT22;5412;59.450;18.124;2023-11-19T14:02:40;0.20;99.90
10722;DHT22;5412;59.450;18.124;2023-11-19T14:05:07;0.20;99.90
10722;DHT22;5412;59.450;18.124;2023-11-19T14:07:32;0.10;99.90
10722;DHT22;5412;59.450;18.124;2023-11-19T14:09:59;0.20;99.90
10722;DHT22;5412;59.450;18.124;2023-11-19T14:12:24;0.00;99.90
10722;DHT22;5412;59.450;18.124;2023-11-19T14:14:50;0.10;99.90
10722;DHT22;5412;59.450;18.124;2023-11-19T14:17:16;0.00;99.90
10722;DHT22;5412;59.450;18.124;2023-11-19T14:19:42;-0.10;99.90
10722;DHT22;5412;59.450;18.124;2023-11-19T14:22:08;0.10;99.90
10722;DHT22;5412;59.450;18.124;2023-11-19T14:24:34;0.20;99.90
10722;DHT22;5412;59.450;18.124;2023-11-19T14:27:00;0.10;99.90
10722;DHT22;5412;59.450;18.124;2023-11-19T14:29:27;-0.10;99.90
10722;DHT22;5412;59.450;18.124;2023-11-19T14:31:53;0.00;99.90
10722;DHT22;5412;59.450;18.124;2023-11-19T14:34:20;0.40;99.90
10722;DHT22;5412;59.450;18.124;2023-11-19T14:36:46;0.30;99.90
10722;DHT22;5412;59.450;18.124;2023-11-19T14:39:13;0.20;99.90
10722;DHT22;5412;59.450;18.124;2023-11-19T14:41:38;0.30;99.90
10722;DHT22;5412;59.450;18.124;2023-11-19T14:44:05;0.30;99.90
10722;DHT22;5412;59.450;18.124;2023-11-19T14:46:31;0.30;99.90
10722;DHT22;5412;59.450;18.124;2023-11-19T14:48:56;0.40;99.90
10722;DHT22;5412;59.450;18.124;2023-11-19T14:51:22;0.30;99.90
10722;DHT22;5412;59.450;18.124;2023-11-19T14:53:48;0.20;99.90
10722;DHT22;5412;59.450;18.124;2023-11-19T14:56:14;0.10;99.90
10722;DHT22;5412;59.450;18.124;2023-11-19T14:58:39;0.20;99.90
10722;DHT22;5412;59.450;18.124;2023-11-19T15:01:06;0.10;99.90
10722;DHT22;5412;59.450;18.124;2023-11-19T15:03:33;0.00;99.90
10722;DHT22;5412;59.450;18.124;2023-11-19T15:05:59;-0.10;99.90
10722;DHT22;5412;59.450;18.124;2023-11-19T15:08:25;0.00;99.90
10722;DHT22;5412;59.450;18.124;2023-11-19T15:10:51;-0.20;99.90
10722;DHT22;5412;59.450;18.124;2023-11-19T15:13:16;0.10;99.90
10722;DHT22;5412;59.450;18.124;2023-11-19T15:15:42;0.20;99.90
10722;DHT22;5412;59.450;18.124;2023-11-19T15:18:08;0.30;99.90
10722;DHT22;5412;59.450;18.124;2023-11-19T15:20:35;0.40;99.90
10722;DHT22;5412;59.450;18.124;2023-11-19T15:23:02;0.40;99.90
10722;DHT22;5412;59.450;18.124;2023-11-19T15:25:27;0.50;99.90
10722;DHT22;5412;59.450;18.124;2023-11-19T15:27:53;0.40;99.90
10722;DHT22;5412;59.450;18.124;2023-11-19T15:30:19;0.30;99.90
10722;DHT22;5412;59.450;18.124;2023-11-19T15:32:45;0.20;99.90
10722;DHT22;5412;59.450;18.124;2023-11-19T15:35:12;0.10;99.90
10722;DHT22;5412;59.450;18.124;2023-11-19T15:37:38;0.20;99.90
10722;DHT22;5412;59.450;18.124;2023-11-19T15:40:06;0.20;99.90
10722;DHT22;5412;59.450;18.124;2023-11-19T15:42:36;0.20;99.90
10722;DHT22;5412;59.450;18.124;2023-11-19T15:45:02;0.20;99.90
10722;DHT22;5412;59.450;18.124;2023-11-19T15:47:32;0.10;99.90
10722;DHT22;5412;59.450;18.124;2023-11-19T15:49:57;0.30;99.90
10722;DHT22;5412;59.450;18.124;2023-11-19T15:52:23;0.40;99.90
10722;DHT22;5412;59.450;18.124;2023-11-19T15:54:49;0.50;99.90